createdAt,value
2023-02-12T00:01:35.291Z,2.35
2023-02-12T00:04:05.230Z,2.33
2023-02-12T00:06:33.736Z,2.31
2023-02-12T00:09:02.214Z,2.29
2023-02-12T00:11:31.536Z,2.26
2023-02-12T00:14:00.507Z,2.27
2023-02-12T00:16:30.885Z,2.30
2023-02-12T00:19:00.910Z,2.33
2023-02-12T00:21:30.765Z,2.32
2023-02-12T00:23:59.716Z,2.24
2023-02-12T00:26:28.093Z,2.18
2023-02-12T00:28:57.317Z,2.10
2023-02-12T00:31:29.163Z,2.07
2023-02-12T00:33:57.805Z,2.02
2023-02-12T00:36:30.914Z,1.98
2023-02-12T00:38:59.871Z,1.94
2023-02-12T00:41:28.809Z,1.92
2023-02-12T00:43:57.540Z,1.90
2023-02-12T00:46:26.030Z,1.91
2023-02-12T00:48:54.437Z,1.91
2023-02-12T00:51:23.109Z,1.91
2023-02-12T00:53:52.874Z,1.91
2023-02-12T00:56:21.281Z,1.90
2023-02-12T00:58:49.638Z,1.89
2023-02-12T01:01:18.847Z,1.87
2023-02-12T01:03:47.327Z,1.86
2023-02-12T01:06:15.758Z,1.85
2023-02-12T01:08:44.139Z,1.84
2023-02-12T01:11:14.965Z,1.84
2023-02-12T01:13:43.346Z,1.87
2023-02-12T01:16:17.723Z,1.87
2023-02-12T01:18:47.595Z,1.91
2023-02-12T01:21:19.174Z,2.01
2023-02-12T01:23:48.818Z,2.06
2023-02-12T01:26:20.365Z,2.07
2023-02-12T01:28:53.217Z,2.05
2023-02-12T01:31:25.445Z,2.02
2023-02-12T01:33:56.578Z,1.98
2023-02-12T01:36:26.077Z,1.94
2023-02-12T01:38:54.643Z,1.90
2023-02-12T01:41:28.414Z,1.89
2023-02-12T01:44:14.175Z,1.88
2023-02-12T01:46:44.142Z,1.91
2023-02-12T01:49:18.993Z,1.94
2023-02-12T01:51:51.031Z,1.97
2023-02-12T01:54:22.013Z,1.98
2023-02-12T01:56:51.830Z,1.96
2023-02-12T01:59:22.231Z,1.94
2023-02-12T02:01:50.748Z,1.94
2023-02-12T02:04:24.762Z,1.93
2023-02-12T02:06:58.443Z,1.91
2023-02-12T02:09:28.234Z,1.96
2023-02-12T02:12:15.663Z,1.97
2023-02-12T02:14:46.204Z,1.93
2023-02-12T02:17:35.557Z,1.93
2023-02-12T02:20:43.996Z,1.93
2023-02-12T02:23:56.788Z,1.93
2023-02-12T02:26:51.682Z,1.91
2023-02-12T02:29:50.277Z,1.90
2023-02-12T02:32:26.032Z,1.91
2023-02-12T02:35:01.599Z,1.91
2023-02-12T02:37:37.368Z,1.89
2023-02-12T02:40:16.071Z,1.93
2023-02-12T02:42:52.870Z,1.93
2023-02-12T02:45:29.272Z,1.90
2023-02-12T02:48:05.049Z,1.93
2023-02-12T02:50:39.822Z,1.91
2023-02-12T02:53:14.454Z,1.92
2023-02-12T02:55:48.239Z,1.93
2023-02-12T02:58:21.954Z,1.90
2023-02-12T03:00:57.304Z,1.94
2023-02-12T03:03:33.721Z,1.97
2023-02-12T03:06:09.403Z,1.99
2023-02-12T03:08:43.104Z,2.03
2023-02-12T03:11:16.810Z,2.06
2023-02-12T03:13:50.233Z,2.06
2023-02-12T03:16:23.350Z,2.05
2023-02-12T03:18:57.147Z,2.03
2023-02-12T03:21:32.605Z,2.00
2023-02-12T03:24:09.076Z,1.98
2023-02-12T03:26:46.505Z,1.91
2023-02-12T03:29:15.203Z,1.87
2023-02-12T03:31:57.468Z,1.87
2023-02-12T03:34:36.531Z,1.81
2023-02-12T03:37:11.314Z,1.79
2023-02-12T03:39:50.803Z,1.73
2023-02-12T03:42:33.159Z,1.67
2023-02-12T03:45:10.481Z,1.63
2023-02-12T03:47:47.353Z,1.61
2023-02-12T03:50:23.248Z,1.60
2023-02-12T03:52:52.512Z,1.60
2023-02-12T03:55:22.039Z,1.60
2023-02-12T03:57:59.038Z,1.61
2023-02-12T04:00:28.532Z,1.60
2023-02-12T04:02:57.900Z,1.63
2023-02-12T04:05:29.087Z,1.64
2023-02-12T04:08:00.151Z,1.67
2023-02-12T04:10:36.941Z,1.67
2023-02-12T04:13:19.472Z,1.67
2023-02-12T04:16:14.257Z,1.66
2023-02-12T04:18:46.066Z,1.68
2023-02-12T04:21:33.290Z,1.63
2023-02-12T04:24:12.500Z,1.61
2023-02-12T04:26:50.907Z,1.60
2023-02-12T04:29:27.987Z,1.58
2023-02-12T04:32:05.347Z,1.54
2023-02-12T04:34:41.029Z,1.55
2023-02-12T04:37:18.164Z,1.55
2023-02-12T04:39:47.327Z,1.57
2023-02-12T04:42:15.845Z,1.57
2023-02-12T04:44:46.206Z,1.58
2023-02-12T04:47:15.611Z,1.58
2023-02-12T04:49:44.196Z,1.58
2023-02-12T04:52:13.949Z,1.66
2023-02-12T04:54:42.281Z,1.67
2023-02-12T04:57:11.043Z,1.68
2023-02-12T04:59:39.392Z,1.69
2023-02-12T05:02:07.757Z,1.69
2023-02-12T05:04:36.156Z,1.69
2023-02-12T05:07:04.615Z,1.66
2023-02-12T05:09:34.397Z,1.63
2023-02-12T05:12:02.767Z,1.61
2023-02-12T05:14:32.000Z,1.61
2023-02-12T05:17:00.315Z,1.59
2023-02-12T05:19:28.792Z,1.60
2023-02-12T05:21:57.157Z,1.61
2023-02-12T05:24:25.949Z,1.66
2023-02-12T05:26:56.080Z,1.67
2023-02-12T05:29:24.686Z,1.66
2023-02-12T05:31:53.254Z,1.62
2023-02-12T05:34:21.656Z,1.60
2023-02-12T05:36:50.039Z,1.54
2023-02-12T05:39:18.538Z,1.51
2023-02-12T05:41:46.902Z,1.49
2023-02-12T05:44:16.685Z,1.43
2023-02-12T05:46:45.519Z,1.40
2023-02-12T05:49:14.036Z,1.42
2023-02-12T05:51:42.469Z,1.44
2023-02-12T05:54:12.205Z,1.49
2023-02-12T05:56:45.757Z,1.48
2023-02-12T05:59:18.836Z,1.52
2023-02-12T06:01:50.197Z,1.57
2023-02-12T06:04:23.582Z,1.60
2023-02-12T06:06:52.651Z,1.63
2023-02-12T06:09:21.319Z,1.67
2023-02-12T06:11:49.900Z,1.71
2023-02-12T06:14:21.197Z,1.75
2023-02-12T06:16:52.831Z,1.76
2023-02-12T06:19:22.203Z,1.83
2023-02-12T06:21:51.250Z,1.84
2023-02-12T06:24:19.936Z,1.80
2023-02-12T06:26:51.948Z,1.76
2023-02-12T06:29:22.489Z,1.73
2023-02-12T06:31:51.074Z,1.66
2023-02-12T06:34:19.517Z,1.60
2023-02-12T06:36:49.084Z,1.53
2023-02-12T06:39:18.957Z,1.45
2023-02-12T06:41:47.544Z,1.42
2023-02-12T06:44:16.106Z,1.41
2023-02-12T06:46:46.149Z,1.41
2023-02-12T06:49:16.283Z,1.41
2023-02-12T06:51:44.764Z,1.47
2023-02-12T06:54:16.407Z,1.54
2023-02-12T06:56:45.551Z,1.57
2023-02-12T06:59:16.400Z,1.57
2023-02-12T07:01:46.282Z,1.62
2023-02-12T07:04:15.401Z,1.74
2023-02-12T07:06:43.990Z,1.86
2023-02-12T07:09:13.596Z,2.05
2023-02-12T07:11:41.963Z,2.26
2023-02-12T07:14:16.059Z,2.48
2023-02-12T07:16:45.962Z,2.64
2023-02-12T07:19:18.196Z,2.80
2023-02-12T07:21:46.752Z,2.88
2023-02-12T07:24:16.140Z,2.98
2023-02-12T07:26:45.113Z,3.09
2023-02-12T07:29:13.565Z,3.12
2023-02-12T07:31:42.642Z,3.23
2023-02-12T07:34:12.728Z,3.32
2023-02-12T07:36:42.204Z,3.47
2023-02-12T07:39:13.652Z,3.78
2023-02-12T07:41:42.072Z,4.08
2023-02-12T07:44:14.106Z,4.22
2023-02-12T07:46:48.164Z,4.33
2023-02-12T07:49:20.749Z,4.43
2023-02-12T07:51:49.992Z,4.52
2023-02-12T07:54:18.881Z,4.62
2023-02-12T07:56:47.901Z,4.67
2023-02-12T07:59:20.646Z,4.76
2023-02-12T08:01:52.090Z,4.80
2023-02-12T08:04:25.422Z,4.92
2023-02-12T08:06:56.278Z,4.99
2023-02-12T08:09:27.520Z,5.02
2023-02-12T08:11:56.059Z,5.17
2023-02-12T08:14:24.911Z,5.39
2023-02-12T08:16:53.810Z,5.60
2023-02-12T08:19:26.340Z,5.75
2023-02-12T08:21:56.727Z,5.92
2023-02-12T08:24:25.648Z,6.08
2023-02-12T08:26:54.764Z,6.16
2023-02-12T08:29:26.019Z,6.18
2023-02-12T08:31:58.759Z,6.19
2023-02-12T08:34:30.596Z,6.15
2023-02-12T08:36:59.713Z,6.13
2023-02-12T08:39:30.778Z,6.29
2023-02-12T08:42:01.381Z,6.53
2023-02-12T08:44:30.496Z,6.79
2023-02-12T08:46:59.007Z,7.05
2023-02-12T08:49:31.363Z,7.22
2023-02-12T08:52:02.559Z,7.52
2023-02-12T08:54:32.846Z,7.64
2023-02-12T08:57:03.228Z,7.61
2023-02-12T08:59:32.065Z,7.52
2023-02-12T09:02:00.942Z,7.54
2023-02-12T09:04:31.414Z,7.57
2023-02-12T09:07:00.034Z,7.56
2023-02-12T09:09:28.688Z,8.01
2023-02-12T09:11:57.117Z,10.55
2023-02-12T09:14:25.503Z,13.86
2023-02-12T09:16:54.920Z,17.01
2023-02-12T09:19:24.144Z,19.87
2023-02-12T09:21:56.318Z,22.41
2023-02-12T09:24:27.636Z,24.55
2023-02-12T09:26:56.493Z,25.57
2023-02-12T09:29:24.989Z,26.43
2023-02-12T09:31:53.919Z,27.22
2023-02-12T09:34:22.408Z,28.37
2023-02-12T09:36:50.908Z,29.68
2023-02-12T09:39:20.663Z,30.66
2023-02-12T09:42:22.527Z,31.46
2023-02-12T09:45:03.137Z,32.49
2023-02-12T09:47:39.564Z,33.18
2023-02-12T09:50:28.618Z,33.38
2023-02-12T09:52:59.391Z,33.48
2023-02-12T09:55:32.993Z,33.00
2023-02-12T09:58:08.683Z,32.90
2023-02-12T10:00:37.124Z,33.17
2023-02-12T10:03:14.268Z,33.97
2023-02-12T10:05:48.092Z,34.79
2023-02-12T10:08:50.500Z,35.34
2023-02-12T10:11:53.200Z,36.09
2023-02-12T10:14:52.018Z,36.12
2023-02-12T10:17:34.487Z,35.56
2023-02-12T10:20:40.393Z,34.88
2023-02-12T10:23:39.347Z,34.72
2023-02-12T10:26:19.494Z,34.60
2023-02-12T10:28:50.618Z,34.90
2023-02-12T10:31:30.242Z,35.13
2023-02-12T10:33:59.073Z,34.00
2023-02-12T10:36:43.063Z,32.89
2023-02-12T10:39:19.799Z,32.57
2023-02-12T10:42:09.559Z,32.09
2023-02-12T10:44:39.471Z,31.79
2023-02-12T10:47:08.689Z,31.59
2023-02-12T10:49:37.198Z,32.02
2023-02-12T10:52:20.086Z,32.52
2023-02-12T10:54:50.283Z,32.61
2023-02-12T10:57:25.933Z,33.42
2023-02-12T11:00:15.054Z,34.39
2023-02-12T11:03:07.102Z,35.76
2023-02-12T11:05:37.925Z,36.73
2023-02-12T11:08:08.408Z,36.56
2023-02-12T11:10:41.430Z,36.01
2023-02-12T11:13:26.213Z,36.39
2023-02-12T11:15:56.728Z,36.47
2023-02-12T11:18:28.484Z,35.90
2023-02-12T11:20:59.787Z,34.84
2023-02-12T11:23:30.957Z,33.88
2023-02-12T11:26:02.996Z,34.07
2023-02-12T11:28:32.950Z,34.40
2023-02-12T11:31:05.411Z,33.91
2023-02-12T11:33:36.238Z,33.58
2023-02-12T11:36:15.867Z,33.86
2023-02-12T11:38:54.480Z,34.18
2023-02-12T11:41:34.591Z,34.08
2023-02-12T11:44:10.092Z,33.76
2023-02-12T11:46:42.034Z,33.09
2023-02-12T11:49:20.345Z,32.69
2023-02-12T11:51:50.383Z,32.98
2023-02-12T11:54:25.552Z,32.85
2023-02-12T11:56:55.469Z,32.94
2023-02-12T11:59:36.122Z,33.39
2023-02-12T12:02:25.938Z,33.80
2023-02-12T12:05:04.480Z,34.38
2023-02-12T12:07:37.665Z,34.79
2023-02-12T12:10:14.851Z,33.83
2023-02-12T12:12:49.246Z,31.17
2023-02-12T12:15:55.592Z,28.38
2023-02-12T12:18:50.177Z,25.58
2023-02-12T12:21:26.990Z,23.02
2023-02-12T12:24:00.759Z,21.11
2023-02-12T12:26:34.471Z,19.50
2023-02-12T12:29:08.397Z,18.06
2023-02-12T12:31:41.539Z,17.01
2023-02-12T12:34:14.632Z,16.00
2023-02-12T12:37:26.028Z,14.93
2023-02-12T12:40:14.678Z,14.13
2023-02-12T12:43:11.372Z,13.42
2023-02-12T12:46:23.915Z,12.78
2023-02-12T12:49:35.893Z,12.20
2023-02-12T12:52:42.969Z,11.61
2023-02-12T12:56:03.386Z,11.12
2023-02-12T12:58:51.080Z,10.63
2023-02-12T13:01:48.828Z,10.24
2023-02-12T13:04:50.152Z,9.84
2023-02-12T13:07:34.742Z,9.46
2023-02-12T13:10:24.298Z,9.17
2023-02-12T13:13:19.678Z,8.89
2023-02-12T13:15:56.576Z,8.75
2023-02-12T13:18:48.568Z,8.68
2023-02-12T13:21:35.473Z,8.59
2023-02-12T13:24:12.225Z,8.40
2023-02-12T13:26:50.541Z,8.22
2023-02-12T13:29:22.666Z,8.08
2023-02-12T13:31:57.545Z,7.80
2023-02-12T13:34:30.748Z,7.51
2023-02-12T13:37:03.847Z,7.22
2023-02-12T13:39:37.381Z,7.01
2023-02-12T13:42:22.985Z,6.89
2023-02-12T13:44:59.600Z,6.87
2023-02-12T13:47:37.876Z,6.87
2023-02-12T13:50:25.454Z,6.88
2023-02-12T13:53:01.025Z,6.85
2023-02-12T13:55:34.906Z,6.75
2023-02-12T13:58:49.527Z,6.64
2023-02-12T14:01:47.115Z,6.45
2023-02-12T14:04:29.752Z,6.31
2023-02-12T14:07:02.768Z,6.17
2023-02-12T14:09:37.878Z,6.07
2023-02-12T14:12:09.979Z,6.02
2023-02-12T14:14:42.651Z,5.95
2023-02-12T14:17:53.010Z,5.87
2023-02-12T14:20:30.662Z,5.76
2023-02-12T14:23:26.840Z,5.65
2023-02-12T14:26:03.650Z,5.53
2023-02-12T14:28:45.569Z,5.39
2023-02-12T14:31:35.209Z,5.27
2023-02-12T14:34:50.059Z,5.09
2023-02-12T14:37:38.984Z,5.02
2023-02-12T14:40:42.862Z,4.90
2023-02-12T14:43:33.322Z,4.83
2023-02-12T14:46:45.162Z,4.71
2023-02-12T14:49:25.095Z,4.60
2023-02-12T14:51:59.676Z,4.51
2023-02-12T14:54:34.060Z,4.43
2023-02-12T14:57:08.268Z,4.38
2023-02-12T14:59:42.438Z,4.31
2023-02-12T15:02:19.839Z,4.21
2023-02-12T15:04:48.833Z,4.11
2023-02-12T15:07:29.905Z,4.04
2023-02-12T15:10:07.546Z,4.02
2023-02-12T15:12:40.912Z,3.97
2023-02-12T15:15:22.540Z,3.91
2023-02-12T15:17:59.724Z,3.83
2023-02-12T15:20:36.474Z,3.77
2023-02-12T15:23:39.262Z,3.67
2023-02-12T15:26:14.801Z,3.63
2023-02-12T15:28:44.421Z,3.54
2023-02-12T15:31:18.094Z,3.48
2023-02-12T15:33:50.080Z,3.44
2023-02-12T15:36:22.371Z,3.38
2023-02-12T15:38:55.663Z,3.31
2023-02-12T15:41:37.185Z,3.29
2023-02-12T15:44:22.045Z,3.23
2023-02-12T15:47:13.162Z,3.16
2023-02-12T15:49:44.088Z,3.11
2023-02-12T15:52:20.793Z,3.05
2023-02-12T15:54:51.334Z,3.02
2023-02-12T15:57:24.276Z,2.99
2023-02-12T15:59:54.046Z,2.96
2023-02-12T16:02:28.453Z,2.95
2023-02-12T16:04:57.955Z,2.91
2023-02-12T16:07:27.700Z,2.89
2023-02-12T16:09:58.424Z,2.85
2023-02-12T16:12:32.492Z,2.80
2023-02-12T16:15:01.864Z,2.78
2023-02-12T16:17:33.183Z,2.73
2023-02-12T16:20:06.593Z,2.69
2023-02-12T16:22:39.030Z,2.66
2023-02-12T16:25:18.512Z,2.64
2023-02-12T16:27:59.040Z,2.60
2023-02-12T16:30:34.470Z,2.60
2023-02-12T16:33:03.814Z,2.57
2023-02-12T16:35:34.767Z,2.53
2023-02-12T16:38:25.504Z,2.51
2023-02-12T16:41:34.293Z,2.47
2023-02-12T16:44:31.590Z,2.46
2023-02-12T16:47:02.826Z,2.42
2023-02-12T16:49:31.343Z,2.42
2023-02-12T16:52:35.994Z,2.39
2023-02-12T16:55:05.048Z,2.38
2023-02-12T16:57:34.898Z,2.38
2023-02-12T17:00:03.307Z,2.37
2023-02-12T17:02:31.890Z,2.36
2023-02-12T17:05:01.829Z,2.35
2023-02-12T17:07:31.174Z,2.32
2023-02-12T17:09:59.627Z,2.30
2023-02-12T17:12:29.087Z,2.28
2023-02-12T17:14:58.907Z,2.26
2023-02-12T17:17:27.396Z,2.24
2023-02-12T17:19:55.832Z,2.25
2023-02-12T17:22:27.440Z,2.23
2023-02-12T17:24:55.900Z,2.20
2023-02-12T17:27:24.374Z,2.22
2023-02-12T17:29:52.804Z,2.23
2023-02-12T17:32:24.592Z,2.20
2023-02-12T17:34:53.197Z,2.20
2023-02-12T17:37:22.337Z,2.19
2023-02-12T17:39:50.710Z,2.18
2023-02-12T17:42:19.411Z,2.17
2023-02-12T17:44:47.841Z,2.16
2023-02-12T17:47:16.297Z,2.14
2023-02-12T17:49:46.283Z,2.12
2023-02-12T17:52:14.720Z,2.13
2023-02-12T17:54:46.704Z,2.14
2023-02-12T17:57:15.887Z,2.15
2023-02-12T17:59:44.497Z,2.15
2023-02-12T18:02:13.347Z,2.17
2023-02-12T18:04:41.991Z,2.23
2023-02-12T18:07:11.818Z,2.24
2023-02-12T18:09:40.320Z,2.23
2023-02-12T18:12:09.630Z,2.26
2023-02-12T18:14:38.022Z,2.27
2023-02-12T18:17:06.434Z,2.31
2023-02-12T18:19:35.167Z,2.35
2023-02-12T18:22:03.669Z,2.36
2023-02-12T18:24:35.091Z,2.37
2023-02-12T18:27:03.491Z,2.40
2023-02-12T18:29:31.972Z,2.41
2023-02-12T18:32:00.379Z,2.42
2023-02-12T18:34:28.898Z,2.44
2023-02-12T18:36:57.738Z,2.48
2023-02-12T18:39:26.182Z,2.49
2023-02-12T18:41:55.928Z,2.53
2023-02-12T18:44:24.394Z,2.56
2023-02-12T18:46:52.722Z,2.59
2023-02-12T18:49:21.093Z,2.60
2023-02-12T18:51:49.620Z,2.63
2023-02-12T18:54:19.478Z,2.66
2023-02-12T18:56:50.865Z,2.67
2023-02-12T18:59:21.814Z,2.69
2023-02-12T19:01:51.812Z,2.71
2023-02-12T19:04:23.827Z,2.73
2023-02-12T19:06:55.628Z,2.73
2023-02-12T19:09:27.896Z,2.74
2023-02-12T19:12:00.493Z,2.74
2023-02-12T19:14:30.699Z,2.77
2023-02-12T19:16:59.219Z,2.77
2023-02-12T19:19:28.396Z,2.80
2023-02-12T19:21:56.959Z,2.83
2023-02-12T19:24:27.216Z,2.82
2023-02-12T19:26:58.935Z,2.85
2023-02-12T19:29:28.023Z,2.85
2023-02-12T19:31:58.055Z,2.88
2023-02-12T19:34:27.355Z,2.87
2023-02-12T19:36:55.953Z,2.88
2023-02-12T19:39:26.084Z,2.88
2023-02-12T19:41:56.255Z,2.89
2023-02-12T19:44:26.674Z,2.92
2023-02-12T19:46:55.183Z,2.94
2023-02-12T19:49:28.564Z,2.98
2023-02-12T19:51:57.169Z,3.01
2023-02-12T19:54:26.328Z,3.01
2023-02-12T19:56:55.881Z,3.08
2023-02-12T19:59:26.913Z,3.10
2023-02-12T20:01:56.546Z,3.12
2023-02-12T20:04:26.885Z,3.13
2023-02-12T20:06:55.413Z,3.14
2023-02-12T20:09:24.589Z,3.17
2023-02-12T20:11:53.276Z,3.19
2023-02-12T20:14:22.878Z,3.19
2023-02-12T20:16:52.215Z,3.21
2023-02-12T20:19:27.803Z,3.23
2023-02-12T20:21:57.638Z,3.25
2023-02-12T20:24:28.538Z,3.24
2023-02-12T20:26:59.451Z,3.25
2023-02-12T20:29:28.909Z,3.28
2023-02-12T20:31:57.712Z,3.33
2023-02-12T20:34:27.831Z,3.33
2023-02-12T20:36:56.412Z,3.34
2023-02-12T20:39:25.154Z,3.37
2023-02-12T20:41:53.826Z,3.42
2023-02-12T20:44:23.211Z,3.43
2023-02-12T20:46:57.256Z,3.41
2023-02-12T20:49:27.702Z,3.43
2023-02-12T20:51:56.649Z,3.39
2023-02-12T20:54:25.973Z,3.44
2023-02-12T20:56:55.226Z,3.44
2023-02-12T20:59:23.753Z,3.48
2023-02-12T21:01:52.131Z,3.49
2023-02-12T21:04:21.283Z,3.51
2023-02-12T21:06:51.008Z,3.53
2023-02-12T21:09:20.405Z,3.51
2023-02-12T21:11:49.214Z,3.52
2023-02-12T21:14:22.354Z,3.53
2023-02-12T21:16:52.246Z,3.54
2023-02-12T21:19:21.322Z,3.53
2023-02-12T21:21:51.649Z,3.54
2023-02-12T21:24:22.579Z,3.55
2023-02-12T21:26:51.817Z,3.55
2023-02-12T21:29:21.666Z,3.53
2023-02-12T21:31:52.242Z,3.55
2023-02-12T21:34:24.569Z,3.55
2023-02-12T21:36:56.662Z,3.59
2023-02-12T21:39:28.019Z,3.54
2023-02-12T21:42:00.123Z,3.58
2023-02-12T21:44:29.690Z,3.56
2023-02-12T21:46:59.005Z,3.56
2023-02-12T21:49:28.200Z,3.55
2023-02-12T21:52:02.228Z,3.56
2023-02-12T21:54:32.236Z,3.55
2023-02-12T21:57:01.778Z,3.55
2023-02-12T21:59:32.346Z,3.55
2023-02-12T22:02:01.863Z,3.55
2023-02-12T22:04:30.674Z,3.55
2023-02-12T22:07:03.304Z,3.52
2023-02-12T22:09:32.214Z,3.55
2023-02-12T22:12:00.548Z,3.56
2023-02-12T22:14:28.916Z,3.55
2023-02-12T22:16:57.560Z,3.59
2023-02-12T22:19:26.073Z,3.61
2023-02-12T22:21:54.407Z,3.64
2023-02-12T22:24:24.363Z,3.68
2023-02-12T22:26:52.783Z,3.70
2023-02-12T22:29:22.892Z,3.71
2023-02-12T22:31:52.009Z,3.70
2023-02-12T22:34:20.711Z,3.73
2023-02-12T22:36:49.238Z,3.73
2023-02-12T22:39:18.648Z,3.75
2023-02-12T22:41:48.396Z,3.75
2023-02-12T22:44:20.707Z,3.75
2023-02-12T22:46:50.199Z,3.74
2023-02-12T22:49:18.701Z,3.74
2023-02-12T22:51:47.160Z,3.76
2023-02-12T22:54:17.970Z,3.76
2023-02-12T22:56:51.268Z,3.77
2023-02-12T22:59:20.296Z,3.77
2023-02-12T23:01:48.712Z,3.80
2023-02-12T23:04:19.507Z,3.82
2023-02-12T23:06:48.037Z,3.85
2023-02-12T23:09:19.113Z,3.87
2023-02-12T23:11:49.696Z,3.90
2023-02-12T23:14:18.756Z,3.90
2023-02-12T23:16:47.469Z,3.92
2023-02-12T23:19:16.846Z,3.94
2023-02-12T23:21:45.464Z,3.99
2023-02-12T23:24:16.186Z,4.01
2023-02-12T23:26:44.850Z,4.03
2023-02-12T23:29:14.642Z,4.07
2023-02-12T23:31:43.137Z,4.09
2023-02-12T23:34:11.912Z,4.11
2023-02-12T23:36:40.252Z,4.17
2023-02-12T23:39:09.608Z,4.18
2023-02-12T23:41:37.987Z,4.20
2023-02-12T23:44:06.794Z,4.22
2023-02-12T23:46:36.632Z,4.25
2023-02-12T23:49:05.507Z,4.25
2023-02-12T23:51:34.411Z,4.25
2023-02-12T23:54:03.066Z,4.26
2023-02-12T23:56:31.537Z,4.27
2023-02-12T23:58:59.902Z,4.29
